createdAt,value
2022-09-02T00:01:36.059Z,99.90
2022-09-02T00:04:25.710Z,99.90
2022-09-02T00:07:17.587Z,99.90
2022-09-02T00:10:15.650Z,99.90
2022-09-02T00:13:04.581Z,99.90
2022-09-02T00:15:59.056Z,99.90
2022-09-02T00:18:49.333Z,99.90
2022-09-02T00:22:01.589Z,99.90
2022-09-02T00:24:50.813Z,99.90
2022-09-02T00:27:37.650Z,99.90
2022-09-02T00:30:24.427Z,99.90
2022-09-02T00:33:20.808Z,99.90
2022-09-02T00:36:11.019Z,99.90
2022-09-02T00:39:04.604Z,99.90
2022-09-02T00:41:54.679Z,99.90
2022-09-02T00:44:41.674Z,99.90
2022-09-02T00:47:31.145Z,99.90
2022-09-02T00:50:22.509Z,99.90
2022-09-02T00:53:16.469Z,99.90
2022-09-02T00:56:03.547Z,99.90
2022-09-02T00:58:54.119Z,99.90
2022-09-02T01:01:48.990Z,99.90
2022-09-02T01:04:38.589Z,99.90
2022-09-02T01:07:34.613Z,99.90
2022-09-02T01:10:26.682Z,99.90
2022-09-02T01:13:20.346Z,99.90
2022-09-02T01:16:19.524Z,99.90
2022-09-02T01:19:25.535Z,99.90
2022-09-02T01:22:21.015Z,99.90
2022-09-02T01:25:19.470Z,99.90
2022-09-02T01:28:10.657Z,99.90
2022-09-02T01:30:57.430Z,99.90
2022-09-02T01:33:56.222Z,99.90
2022-09-02T01:36:46.485Z,99.90
2022-09-02T01:39:37.081Z,99.90
2022-09-02T01:42:26.560Z,99.90
2022-09-02T01:45:20.182Z,99.90
2022-09-02T01:48:10.596Z,99.90
2022-09-02T01:51:07.710Z,99.90
2022-09-02T01:53:54.633Z,99.90
2022-09-02T01:56:42.709Z,99.90
2022-09-02T01:59:44.674Z,99.90
2022-09-02T02:02:31.432Z,99.90
2022-09-02T02:05:23.893Z,99.90
2022-09-02T02:08:11.098Z,99.90
2022-09-02T02:11:01.134Z,99.90
2022-09-02T02:13:48.462Z,99.90
2022-09-02T02:16:40.847Z,99.90
2022-09-02T02:19:30.843Z,99.90
2022-09-02T02:22:19.084Z,99.90
2022-09-02T02:25:09.340Z,99.90
2022-09-02T02:27:58.676Z,99.90
2022-09-02T02:30:48.397Z,99.90
2022-09-02T02:33:38.841Z,99.90
2022-09-02T02:36:39.332Z,99.90
2022-09-02T02:39:29.128Z,99.90
2022-09-02T02:42:23.472Z,99.90
2022-09-02T02:45:14.955Z,99.90
2022-09-02T02:48:06.025Z,99.90
2022-09-02T02:50:53.425Z,99.90
2022-09-02T02:53:58.822Z,99.90
2022-09-02T02:56:48.538Z,99.90
2022-09-02T02:59:39.647Z,99.90
2022-09-02T03:02:34.223Z,99.90
2022-09-02T03:05:21.127Z,99.90
2022-09-02T03:08:10.833Z,99.90
2022-09-02T03:10:59.907Z,99.90
2022-09-02T03:13:46.728Z,99.90
2022-09-02T03:16:39.915Z,99.90
2022-09-02T03:19:30.056Z,99.90
2022-09-02T03:22:19.903Z,99.90
2022-09-02T03:25:11.783Z,99.90
2022-09-02T03:27:58.533Z,99.90
2022-09-02T03:30:46.872Z,99.90
2022-09-02T03:33:36.428Z,99.90
2022-09-02T03:36:29.100Z,99.90
2022-09-02T03:39:18.011Z,99.90
2022-09-02T03:42:15.125Z,99.90
2022-09-02T03:45:11.211Z,99.90
2022-09-02T03:48:03.673Z,99.90
2022-09-02T03:50:56.331Z,99.90
2022-09-02T03:53:46.012Z,99.90
2022-09-02T03:56:38.353Z,99.90
2022-09-02T03:59:30.575Z,99.90
2022-09-02T04:02:18.200Z,99.90
2022-09-02T04:05:06.008Z,99.90
2022-09-02T04:08:00.714Z,99.90
2022-09-02T04:10:53.367Z,99.90
2022-09-02T04:13:40.152Z,99.90
2022-09-02T04:16:32.789Z,99.90
2022-09-02T04:19:25.484Z,99.90
2022-09-02T04:22:15.127Z,99.90
2022-09-02T04:25:02.234Z,99.90
2022-09-02T04:27:51.984Z,99.90
2022-09-02T04:30:43.930Z,99.90
2022-09-02T04:33:35.087Z,99.90
2022-09-02T04:36:25.037Z,99.90
2022-09-02T04:39:16.060Z,99.90
2022-09-02T04:42:03.035Z,99.90
2022-09-02T04:44:49.794Z,99.90
2022-09-02T04:47:36.574Z,99.90
2022-09-02T04:50:26.468Z,99.90
2022-09-02T04:53:15.533Z,99.90
2022-09-02T04:56:12.787Z,99.90
2022-09-02T04:59:00.052Z,99.90
2022-09-02T05:01:50.474Z,99.90
2022-09-02T05:04:37.739Z,99.90
2022-09-02T05:10:25.511Z,99.90
2022-09-02T05:13:16.911Z,99.90
2022-09-02T05:16:09.972Z,99.90
2022-09-02T05:19:00.615Z,99.90
2022-09-02T05:21:47.586Z,99.90
2022-09-02T05:24:34.363Z,99.90
2022-09-02T05:27:21.151Z,99.90
2022-09-02T05:30:08.464Z,99.90
2022-09-02T05:32:55.315Z,99.90
2022-09-02T05:35:45.971Z,99.90
2022-09-02T05:38:34.780Z,99.90
2022-09-02T05:41:24.173Z,99.90
2022-09-02T05:44:11.416Z,99.90
2022-09-02T05:46:58.224Z,99.90
2022-09-02T05:49:45.106Z,99.90
2022-09-02T05:52:32.419Z,99.90
2022-09-02T05:55:19.284Z,99.90
2022-09-02T05:58:06.046Z,99.90
2022-09-02T06:00:53.172Z,99.90
2022-09-02T06:03:40.311Z,99.90
2022-09-02T06:06:30.460Z,99.90
2022-09-02T06:09:19.236Z,99.90
2022-09-02T06:12:06.141Z,99.90
2022-09-02T06:14:52.961Z,99.90
2022-09-02T06:17:40.469Z,99.90
2022-09-02T06:20:29.178Z,99.90
2022-09-02T06:23:17.658Z,99.90
2022-09-02T06:26:10.243Z,99.90
2022-09-02T06:28:57.373Z,99.90
2022-09-02T06:31:46.247Z,99.90
2022-09-02T06:34:33.084Z,99.90
2022-09-02T06:37:19.953Z,99.90
2022-09-02T06:40:07.899Z,99.90
2022-09-02T06:42:55.412Z,99.90
2022-09-02T06:45:43.368Z,99.90
2022-09-02T06:48:30.410Z,99.90
2022-09-02T06:51:19.264Z,99.90
2022-09-02T06:54:08.122Z,99.90
2022-09-02T06:56:56.399Z,99.90
2022-09-02T06:59:43.185Z,99.90
2022-09-02T07:02:29.969Z,99.90
2022-09-02T07:05:16.817Z,99.90
2022-09-02T07:08:03.716Z,99.90
2022-09-02T07:10:50.491Z,99.90
2022-09-02T07:13:37.222Z,99.90
2022-09-02T07:16:27.033Z,99.90
2022-09-02T07:19:19.940Z,99.90
2022-09-02T07:22:07.615Z,99.90
2022-09-02T07:24:54.450Z,99.90
2022-09-02T07:27:41.264Z,99.90
2022-09-02T07:30:32.978Z,99.90
2022-09-02T07:33:22.287Z,99.90
2022-09-02T07:36:13.551Z,99.90
2022-09-02T07:39:01.078Z,99.90
2022-09-02T07:41:53.198Z,99.90
2022-09-02T07:44:40.004Z,99.90
2022-09-02T07:47:29.772Z,99.90
2022-09-02T07:50:20.730Z,99.90
2022-09-02T07:53:16.934Z,99.90
2022-09-02T07:56:07.007Z,99.90
2022-09-02T07:59:01.559Z,99.90
2022-09-02T08:01:57.040Z,99.90
2022-09-02T08:04:44.100Z,99.90
2022-09-02T08:07:33.880Z,99.90
2022-09-02T08:10:20.770Z,99.90
2022-09-02T08:13:11.169Z,99.90
2022-09-02T08:15:57.992Z,99.90
2022-09-02T08:18:51.453Z,99.90
2022-09-02T08:21:47.498Z,99.90
2022-09-02T08:24:34.451Z,99.90
2022-09-02T08:27:22.125Z,99.90
2022-09-02T08:30:12.604Z,99.90
2022-09-02T08:33:06.279Z,99.90
2022-09-02T08:35:53.214Z,99.90
2022-09-02T08:38:40.069Z,99.90
2022-09-02T08:41:33.807Z,99.90
2022-09-02T08:44:23.895Z,99.90
2022-09-02T08:47:20.871Z,99.90
2022-09-02T08:50:16.940Z,99.90
2022-09-02T08:53:18.714Z,99.90
2022-09-02T08:56:09.041Z,99.90
2022-09-02T08:59:00.353Z,99.90
2022-09-02T09:01:56.331Z,99.90
2022-09-02T09:04:53.523Z,99.90
2022-09-02T09:07:49.718Z,99.90
2022-09-02T09:10:58.035Z,99.90
2022-09-02T09:14:04.855Z,99.90
2022-09-02T09:17:15.914Z,99.90
2022-09-02T09:20:09.719Z,99.90
2022-09-02T09:23:03.385Z,99.90
2022-09-02T09:26:06.986Z,99.90
2022-09-02T09:29:03.675Z,99.90
2022-09-02T09:31:59.350Z,99.90
2022-09-02T09:34:54.935Z,99.90
2022-09-02T09:37:48.147Z,99.90
2022-09-02T09:40:40.657Z,99.90
2022-09-02T09:43:32.039Z,99.90
2022-09-02T09:46:32.306Z,99.90
2022-09-02T09:49:29.210Z,99.90
2022-09-02T09:52:34.184Z,99.90
2022-09-02T09:55:24.785Z,99.90
2022-09-02T09:58:27.414Z,99.90
2022-09-02T10:01:33.065Z,99.90
2022-09-02T10:04:42.973Z,99.90
2022-09-02T10:07:53.526Z,99.90
2022-09-02T10:10:42.383Z,99.90
2022-09-02T10:13:37.804Z,99.90
2022-09-02T10:16:59.503Z,99.90
2022-09-02T10:20:24.313Z,99.90
2022-09-02T10:23:39.826Z,99.90
2022-09-02T10:26:54.222Z,99.90
2022-09-02T10:30:03.747Z,99.90
2022-09-02T10:33:28.651Z,99.90
2022-09-02T10:36:28.685Z,99.90
2022-09-02T10:39:33.567Z,99.90
2022-09-02T10:42:42.387Z,99.90
2022-09-02T10:45:35.046Z,99.90
2022-09-02T10:48:54.175Z,99.90
2022-09-02T10:52:01.625Z,99.90
2022-09-02T10:55:03.521Z,99.90
2022-09-02T10:58:01.103Z,99.90
2022-09-02T11:00:51.688Z,99.90
2022-09-02T11:03:47.477Z,99.90
2022-09-02T11:07:01.515Z,99.90
2022-09-02T11:10:12.705Z,99.90
2022-09-02T11:13:26.414Z,99.90
2022-09-02T11:16:19.263Z,99.90
2022-09-02T11:19:16.047Z,99.90
2022-09-02T11:22:32.747Z,99.90
2022-09-02T11:25:37.459Z,99.90
2022-09-02T11:28:33.140Z,99.90
2022-09-02T11:31:39.289Z,99.90
2022-09-02T11:34:35.046Z,99.90
2022-09-02T11:37:37.566Z,99.90
2022-09-02T11:41:33.720Z,99.90
2022-09-02T11:44:07.080Z,99.00
2022-09-02T11:46:56.102Z,98.60
2022-09-02T11:50:20.587Z,98.40
2022-09-02T11:53:31.184Z,98.20
2022-09-02T11:56:36.143Z,97.90
2022-09-02T11:59:47.023Z,97.60
2022-09-02T12:03:11.881Z,97.60
2022-09-02T12:06:14.020Z,97.50
2022-09-02T12:09:07.750Z,97.60
2022-09-02T12:11:55.115Z,97.50
2022-09-02T12:14:48.092Z,97.40
2022-09-02T12:18:05.099Z,97.30
2022-09-02T12:20:58.283Z,97.20
2022-09-02T12:23:52.607Z,97.00
2022-09-02T12:26:39.353Z,96.90
2022-09-02T12:29:26.078Z,97.00
2022-09-02T12:32:12.979Z,97.00
2022-09-02T12:35:10.715Z,97.10
2022-09-02T12:38:12.741Z,97.10
2022-09-02T12:41:05.727Z,97.20
2022-09-02T12:44:02.502Z,97.30
2022-09-02T12:46:58.009Z,97.30
2022-09-02T12:50:32.312Z,97.50
2022-09-02T12:53:24.981Z,97.60
2022-09-02T12:56:23.459Z,97.80
2022-09-02T12:59:10.291Z,98.20
2022-09-02T13:05:06.596Z,99.40
2022-09-02T13:08:21.730Z,99.90
2022-09-02T13:11:29.714Z,99.90
2022-09-02T13:14:53.011Z,99.90
2022-09-02T13:18:02.570Z,99.90
2022-09-02T13:21:32.100Z,99.90
2022-09-02T13:24:44.881Z,99.90
2022-09-02T13:27:59.174Z,99.90
2022-09-02T13:31:08.141Z,99.90
2022-09-02T13:34:13.359Z,99.90
2022-09-02T13:37:00.144Z,99.90
2022-09-02T13:39:46.924Z,99.90
2022-09-02T13:42:33.689Z,99.90
2022-09-02T13:45:26.124Z,99.90
2022-09-02T13:48:24.401Z,99.90
2022-09-02T13:51:14.947Z,99.90
2022-09-02T13:57:12.237Z,99.90
2022-09-02T13:59:58.981Z,99.90
2022-09-02T14:02:58.107Z,99.90
2022-09-02T14:05:47.848Z,99.90
2022-09-02T14:08:35.639Z,99.90
2022-09-02T14:11:22.979Z,99.90
2022-09-02T14:14:14.442Z,99.90
2022-09-02T14:17:26.385Z,99.90
2022-09-02T14:20:16.211Z,99.90
2022-09-02T14:23:02.977Z,99.90
2022-09-02T14:26:00.854Z,99.90
2022-09-02T14:28:51.457Z,99.90
2022-09-02T14:31:38.493Z,99.90
2022-09-02T14:35:11.779Z,99.90
2022-09-02T14:37:59.554Z,99.90
2022-09-02T14:40:48.070Z,99.90
2022-09-02T14:43:58.176Z,99.90
2022-09-02T14:46:50.981Z,99.90
2022-09-02T14:49:46.001Z,99.90
2022-09-02T14:52:35.600Z,99.90
2022-09-02T14:55:52.780Z,99.90
2022-09-02T14:58:39.565Z,99.90
2022-09-02T15:01:26.542Z,99.90
2022-09-02T15:04:14.670Z,99.90
2022-09-02T15:07:01.747Z,99.90
2022-09-02T15:09:51.243Z,99.90
2022-09-02T15:12:49.643Z,99.90
2022-09-02T15:15:36.386Z,99.90
2022-09-02T15:18:23.737Z,99.90
2022-09-02T15:21:10.525Z,99.90
2022-09-02T15:23:57.944Z,99.90
2022-09-02T15:26:44.775Z,99.90
2022-09-02T15:29:32.014Z,99.90
2022-09-02T15:32:19.050Z,99.90
2022-09-02T15:35:06.962Z,99.90
2022-09-02T15:37:53.791Z,99.90
2022-09-02T15:40:40.667Z,99.90
2022-09-02T15:43:27.420Z,99.90
2022-09-02T15:46:34.503Z,99.90
2022-09-02T15:49:23.686Z,99.90
2022-09-02T15:52:11.285Z,99.90
2022-09-02T15:54:59.143Z,99.90
2022-09-02T15:57:46.006Z,99.90
2022-09-02T16:00:34.483Z,99.90
2022-09-02T16:03:21.303Z,99.90
2022-09-02T16:06:10.001Z,99.90
2022-09-02T16:08:57.028Z,99.90
2022-09-02T16:11:46.879Z,99.90
2022-09-02T16:14:34.296Z,99.90
2022-09-02T16:17:21.131Z,99.90
2022-09-02T16:20:08.428Z,99.90
2022-09-02T16:22:55.155Z,99.90
2022-09-02T16:25:41.929Z,99.90
2022-09-02T16:28:28.659Z,99.90
2022-09-02T16:31:17.686Z,99.90
2022-09-02T16:34:06.392Z,99.90
2022-09-02T16:36:53.228Z,99.90
2022-09-02T16:39:40.006Z,99.90
2022-09-02T16:42:27.130Z,99.90
2022-09-02T16:45:13.931Z,99.90
2022-09-02T16:48:00.674Z,99.90
2022-09-02T16:50:48.709Z,99.90
2022-09-02T16:53:35.488Z,99.90
2022-09-02T16:56:23.632Z,99.90
2022-09-02T16:59:15.037Z,99.90
2022-09-02T17:02:02.059Z,99.90
2022-09-02T17:04:48.846Z,99.90
2022-09-02T17:07:35.562Z,99.90
2022-09-02T17:10:22.364Z,99.90
2022-09-02T17:13:09.173Z,99.90
2022-09-02T17:15:56.151Z,99.90
2022-09-02T17:18:42.908Z,99.90
2022-09-02T17:21:34.424Z,99.90
2022-09-02T17:24:23.869Z,99.90
2022-09-02T17:27:10.764Z,99.90
2022-09-02T17:29:59.912Z,99.90
2022-09-02T17:32:46.700Z,99.90
2022-09-02T17:35:34.446Z,99.90
2022-09-02T17:38:25.380Z,99.90
2022-09-02T17:41:33.133Z,99.90
2022-09-02T17:44:20.762Z,99.90
2022-09-02T17:47:14.172Z,99.90
2022-09-02T17:50:01.012Z,99.90
2022-09-02T17:52:47.806Z,99.90
2022-09-02T17:55:34.708Z,99.90
2022-09-02T17:58:22.742Z,99.90
2022-09-02T18:01:13.480Z,99.90
2022-09-02T18:04:18.654Z,99.90
2022-09-02T18:07:17.025Z,99.90
2022-09-02T18:10:04.921Z,99.90
2022-09-02T18:12:51.766Z,99.90
2022-09-02T18:16:26.561Z,99.90
2022-09-02T18:19:13.826Z,99.90
2022-09-02T18:22:20.372Z,99.90
2022-09-02T18:25:24.415Z,99.90
2022-09-02T18:28:48.792Z,99.90
2022-09-02T18:31:54.086Z,99.90
2022-09-02T18:34:56.102Z,99.90
2022-09-02T18:37:45.673Z,99.90
2022-09-02T18:40:47.544Z,99.90
2022-09-02T18:44:07.618Z,99.90
2022-09-02T18:47:05.207Z,99.90
2022-09-02T18:49:55.134Z,99.90
2022-09-02T18:52:45.515Z,99.90
2022-09-02T18:55:45.074Z,99.90
2022-09-02T18:58:50.794Z,99.90
2022-09-02T19:01:44.475Z,99.90
2022-09-02T19:04:36.977Z,99.90
2022-09-02T19:07:43.039Z,99.90
2022-09-02T19:10:37.572Z,99.90
2022-09-02T19:13:30.085Z,99.90
2022-09-02T19:16:20.377Z,99.90
2022-09-02T19:19:07.958Z,99.90
2022-09-02T19:22:04.016Z,99.90
2022-09-02T19:25:01.080Z,99.90
2022-09-02T19:27:54.957Z,99.90
2022-09-02T19:30:45.159Z,99.90
2022-09-02T19:33:35.898Z,99.90
2022-09-02T19:36:26.400Z,99.90
2022-09-02T19:39:21.014Z,99.90
2022-09-02T19:42:12.792Z,99.90
2022-09-02T19:45:02.470Z,99.90
2022-09-02T19:48:06.599Z,99.90
2022-09-02T19:50:55.287Z,99.90
2022-09-02T19:53:54.255Z,99.90
2022-09-02T19:56:43.610Z,99.90
2022-09-02T19:59:34.465Z,99.90
2022-09-02T20:02:42.631Z,99.90
2022-09-02T20:05:29.909Z,99.90
2022-09-02T20:08:22.297Z,99.90
2022-09-02T20:11:09.138Z,99.90
2022-09-02T20:13:56.531Z,99.90
2022-09-02T20:16:46.436Z,99.90
2022-09-02T20:19:33.401Z,99.90
2022-09-02T20:22:21.145Z,99.90
2022-09-02T20:25:08.551Z,99.90
2022-09-02T20:28:25.419Z,99.90
2022-09-02T20:31:43.448Z,99.90
2022-09-02T20:34:49.800Z,99.90
2022-09-02T20:38:24.558Z,99.90
2022-09-02T20:41:37.370Z,99.90
2022-09-02T20:45:02.276Z,99.90
2022-09-02T20:48:01.164Z,99.90
2022-09-02T20:50:57.902Z,99.90
2022-09-02T20:54:01.295Z,99.90
2022-09-02T20:57:04.065Z,99.90
2022-09-02T20:59:59.642Z,99.90
2022-09-02T21:03:05.351Z,99.90
2022-09-02T21:06:02.164Z,99.90
2022-09-02T21:09:04.819Z,99.90
2022-09-02T21:12:02.973Z,99.90
2022-09-02T21:15:14.934Z,99.90
2022-09-02T21:18:38.314Z,99.90
2022-09-02T21:21:40.713Z,99.90
2022-09-02T21:24:37.321Z,99.90
2022-09-02T21:27:37.228Z,99.90
2022-09-02T21:30:28.139Z,99.90
2022-09-02T21:33:17.045Z,99.90
2022-09-02T21:36:05.359Z,99.90
2022-09-02T21:38:54.071Z,99.90
2022-09-02T21:41:54.849Z,99.90
2022-09-02T21:45:00.973Z,99.90
2022-09-02T21:47:50.810Z,99.90
2022-09-02T21:50:46.168Z,99.90
2022-09-02T21:53:45.111Z,99.90
2022-09-02T21:56:49.855Z,99.90
2022-09-02T22:00:06.295Z,99.90
2022-09-02T22:02:58.103Z,99.90
2022-09-02T22:05:57.799Z,99.90
2022-09-02T22:08:58.507Z,99.90
2022-09-02T22:11:59.040Z,99.90
2022-09-02T22:15:14.404Z,99.90
2022-09-02T22:18:22.885Z,99.90
2022-09-02T22:21:28.446Z,99.90
2022-09-02T22:24:17.802Z,99.90
2022-09-02T22:27:25.518Z,99.90
2022-09-02T22:30:16.531Z,99.90
2022-09-02T22:33:13.693Z,99.90
2022-09-02T22:36:09.226Z,99.90
2022-09-02T22:39:02.005Z,99.90
2022-09-02T22:42:08.022Z,99.90
2022-09-02T22:45:38.727Z,99.90
2022-09-02T22:48:54.043Z,99.90
2022-09-02T22:52:10.647Z,99.90
2022-09-02T22:54:57.457Z,99.90
2022-09-02T22:57:49.442Z,99.90
2022-09-02T23:00:52.772Z,99.90
2022-09-02T23:04:09.180Z,99.90
2022-09-02T23:06:58.205Z,99.90
2022-09-02T23:09:47.811Z,99.90
2022-09-02T23:12:51.835Z,99.90
2022-09-02T23:15:47.923Z,99.90
2022-09-02T23:18:52.119Z,99.90
2022-09-02T23:21:54.379Z,99.90
2022-09-02T23:25:15.504Z,99.90
2022-09-02T23:28:17.287Z,99.90
2022-09-02T23:31:24.365Z,99.90
2022-09-02T23:34:30.783Z,99.90
2022-09-02T23:37:43.683Z,99.90
2022-09-02T23:40:45.996Z,99.90
2022-09-02T23:43:32.993Z,99.90
2022-09-02T23:46:49.227Z,99.90
2022-09-02T23:49:54.315Z,99.90
2022-09-02T23:52:44.419Z,99.90
2022-09-02T23:55:55.570Z,99.90
2022-09-02T23:59:08.031Z,99.90
